sensor_id;sensor_type;location;lat;lon;timestamp;P1;durP1;ratioP1;P2;durP2;ratioP2
62588;SDS011;58504;48.770;9.148;2023-04-21T00:00:27;2.75;;;1.40;;
62588;SDS011;58504;48.770;9.148;2023-04-21T00:02:54;1.02;;;1.02;;
62588;SDS011;58504;48.770;9.148;2023-04-21T00:05:21;1.10;;;1.10;;
62588;SDS011;58504;48.770;9.148;2023-04-21T00:07:49;2.97;;;1.20;;
62588;SDS011;58504;48.770;9.148;2023-04-21T00:10:16;1.20;;;1.10;;
62588;SDS011;58504;48.770;9.148;2023-04-21T00:12:43;1.10;;;1.00;;
62588;SDS011;58504;48.770;9.148;2023-04-21T00:15:10;2.63;;;1.13;;
62588;SDS011;58504;48.770;9.148;2023-04-21T00:17:37;1.20;;;1.20;;
62588;SDS011;58504;48.770;9.148;2023-04-21T00:20:05;1.27;;;1.17;;
62588;SDS011;58504;48.770;9.148;2023-04-21T00:22:34;1.30;;;1.30;;
62588;SDS011;58504;48.770;9.148;2023-04-21T00:25:02;1.27;;;1.20;;
62588;SDS011;58504;48.770;9.148;2023-04-21T00:27:29;1.35;;;1.33;;
62588;SDS011;58504;48.770;9.148;2023-04-21T00:29:56;1.15;;;1.15;;
62588;SDS011;58504;48.770;9.148;2023-04-21T00:32:23;1.25;;;1.20;;
62588;SDS011;58504;48.770;9.148;2023-04-21T00:34:50;1.40;;;1.30;;
62588;SDS011;58504;48.770;9.148;2023-04-21T00:37:17;1.30;;;1.17;;
62588;SDS011;58504;48.770;9.148;2023-04-21T00:39:43;2.13;;;1.70;;
62588;SDS011;58504;48.770;9.148;2023-04-21T00:42:13;1.75;;;1.50;;
62588;SDS011;58504;48.770;9.148;2023-04-21T00:44:40;1.50;;;1.40;;
62588;SDS011;58504;48.770;9.148;2023-04-21T00:47:07;1.23;;;1.13;;
62588;SDS011;58504;48.770;9.148;2023-04-21T00:49:34;1.25;;;1.25;;
62588;SDS011;58504;48.770;9.148;2023-04-21T00:52:01;1.13;;;1.13;;
62588;SDS011;58504;48.770;9.148;2023-04-21T00:54:30;1.65;;;1.40;;
62588;SDS011;58504;48.770;9.148;2023-04-21T00:56:57;1.17;;;1.10;;
62588;SDS011;58504;48.770;9.148;2023-04-21T00:59:25;0.93;;;0.93;;
62588;SDS011;58504;48.770;9.148;2023-04-21T01:01:52;1.02;;;1.02;;
62588;SDS011;58504;48.770;9.148;2023-04-21T01:04:19;1.13;;;1.13;;
62588;SDS011;58504;48.770;9.148;2023-04-21T01:06:46;1.33;;;1.27;;
62588;SDS011;58504;48.770;9.148;2023-04-21T01:09:13;1.75;;;1.65;;
62588;SDS011;58504;48.770;9.148;2023-04-21T01:11:40;1.52;;;1.42;;
62588;SDS011;58504;48.770;9.148;2023-04-21T01:14:06;1.10;;;1.10;;
62588;SDS011;58504;48.770;9.148;2023-04-21T01:16:34;1.50;;;1.40;;
62588;SDS011;58504;48.770;9.148;2023-04-21T01:19:02;1.02;;;1.02;;
62588;SDS011;58504;48.770;9.148;2023-04-21T01:21:35;2.45;;;1.27;;
62588;SDS011;58504;48.770;9.148;2023-04-21T01:24:04;1.08;;;1.00;;
62588;SDS011;58504;48.770;9.148;2023-04-21T01:26:31;1.40;;;1.30;;
62588;SDS011;58504;48.770;9.148;2023-04-21T01:28:58;1.95;;;1.10;;
62588;SDS011;58504;48.770;9.148;2023-04-21T01:31:25;1.40;;;1.30;;
62588;SDS011;58504;48.770;9.148;2023-04-21T01:33:52;1.10;;;1.10;;
62588;SDS011;58504;48.770;9.148;2023-04-21T01:36:18;1.30;;;1.20;;
62588;SDS011;58504;48.770;9.148;2023-04-21T01:41:14;0.90;;;0.90;;
62588;SDS011;58504;48.770;9.148;2023-04-21T01:43:41;0.88;;;0.88;;
62588;SDS011;58504;48.770;9.148;2023-04-21T01:46:08;1.70;;;1.60;;
62588;SDS011;58504;48.770;9.148;2023-04-21T01:48:35;1.85;;;1.17;;
62588;SDS011;58504;48.770;9.148;2023-04-21T01:51:02;0.90;;;0.90;;
62588;SDS011;58504;48.770;9.148;2023-04-21T01:53:29;1.65;;;1.35;;
62588;SDS011;58504;48.770;9.148;2023-04-21T01:55:57;1.23;;;1.23;;
62588;SDS011;58504;48.770;9.148;2023-04-21T01:58:24;1.05;;;1.05;;
62588;SDS011;58504;48.770;9.148;2023-04-21T02:00:51;1.38;;;1.27;;
62588;SDS011;58504;48.770;9.148;2023-04-21T02:03:18;1.10;;;1.10;;
62588;SDS011;58504;48.770;9.148;2023-04-21T02:05:45;1.15;;;1.15;;
62588;SDS011;58504;48.770;9.148;2023-04-21T02:08:11;1.42;;;1.33;;
62588;SDS011;58504;48.770;9.148;2023-04-21T02:10:38;1.30;;;1.30;;
62588;SDS011;58504;48.770;9.148;2023-04-21T02:13:06;0.70;;;0.70;;
62588;SDS011;58504;48.770;9.148;2023-04-21T02:15:33;1.40;;;1.30;;
62588;SDS011;58504;48.770;9.148;2023-04-21T02:18:02;1.00;;;1.00;;
62588;SDS011;58504;48.770;9.148;2023-04-21T02:20:29;1.38;;;1.30;;
62588;SDS011;58504;48.770;9.148;2023-04-21T02:22:55;1.02;;;1.02;;
62588;SDS011;58504;48.770;9.148;2023-04-21T02:25:22;1.58;;;1.48;;
62588;SDS011;58504;48.770;9.148;2023-04-21T02:27:49;1.17;;;1.17;;
62588;SDS011;58504;48.770;9.148;2023-04-21T02:30:17;0.82;;;0.82;;
62588;SDS011;58504;48.770;9.148;2023-04-21T02:32:44;1.23;;;1.23;;
62588;SDS011;58504;48.770;9.148;2023-04-21T02:35:11;0.90;;;0.90;;
62588;SDS011;58504;48.770;9.148;2023-04-21T02:37:38;1.30;;;1.20;;
62588;SDS011;58504;48.770;9.148;2023-04-21T02:40:05;1.10;;;1.10;;
62588;SDS011;58504;48.770;9.148;2023-04-21T02:42:33;1.23;;;1.20;;
62588;SDS011;58504;48.770;9.148;2023-04-21T02:45:00;1.30;;;1.30;;
62588;SDS011;58504;48.770;9.148;2023-04-21T02:47:28;1.17;;;1.17;;
62588;SDS011;58504;48.770;9.148;2023-04-21T02:49:55;1.00;;;1.00;;
62588;SDS011;58504;48.770;9.148;2023-04-21T02:52:21;1.23;;;1.15;;
62588;SDS011;58504;48.770;9.148;2023-04-21T02:54:48;1.30;;;1.30;;
62588;SDS011;58504;48.770;9.148;2023-04-21T02:57:15;0.98;;;0.98;;
62588;SDS011;58504;48.770;9.148;2023-04-21T02:59:42;1.20;;;1.10;;
62588;SDS011;58504;48.770;9.148;2023-04-21T03:02:08;1.52;;;1.42;;
62588;SDS011;58504;48.770;9.148;2023-04-21T03:04:36;1.00;;;1.00;;
62588;SDS011;58504;48.770;9.148;2023-04-21T03:07:03;1.27;;;1.20;;
62588;SDS011;58504;48.770;9.148;2023-04-21T03:09:30;1.00;;;1.00;;
62588;SDS011;58504;48.770;9.148;2023-04-21T03:11:56;0.90;;;0.90;;
62588;SDS011;58504;48.770;9.148;2023-04-21T03:14:23;1.33;;;1.30;;
62588;SDS011;58504;48.770;9.148;2023-04-21T03:16:50;1.20;;;1.20;;
62588;SDS011;58504;48.770;9.148;2023-04-21T03:19:17;1.23;;;1.20;;
62588;SDS011;58504;48.770;9.148;2023-04-21T03:21:45;1.13;;;1.13;;
62588;SDS011;58504;48.770;9.148;2023-04-21T03:24:11;1.13;;;1.13;;
62588;SDS011;58504;48.770;9.148;2023-04-21T03:26:38;1.00;;;1.00;;
62588;SDS011;58504;48.770;9.148;2023-04-21T03:29:05;1.25;;;1.25;;
62588;SDS011;58504;48.770;9.148;2023-04-21T03:31:32;1.00;;;1.00;;
62588;SDS011;58504;48.770;9.148;2023-04-21T03:33:58;1.15;;;1.05;;
62588;SDS011;58504;48.770;9.148;2023-04-21T03:36:25;1.10;;;1.10;;
62588;SDS011;58504;48.770;9.148;2023-04-21T03:38:53;0.93;;;0.93;;
62588;SDS011;58504;48.770;9.148;2023-04-21T03:41:20;1.08;;;1.08;;
62588;SDS011;58504;48.770;9.148;2023-04-21T03:43:49;1.00;;;1.00;;
62588;SDS011;58504;48.770;9.148;2023-04-21T03:46:16;1.17;;;1.17;;
62588;SDS011;58504;48.770;9.148;2023-04-21T03:48:44;1.15;;;1.10;;
62588;SDS011;58504;48.770;9.148;2023-04-21T03:51:10;1.20;;;1.10;;
62588;SDS011;58504;48.770;9.148;2023-04-21T03:53:37;1.27;;;1.17;;
62588;SDS011;58504;48.770;9.148;2023-04-21T03:56:06;1.35;;;1.33;;
62588;SDS011;58504;48.770;9.148;2023-04-21T03:58:33;1.30;;;1.20;;
62588;SDS011;58504;48.770;9.148;2023-04-21T04:01:00;1.20;;;1.20;;
62588;SDS011;58504;48.770;9.148;2023-04-21T04:03:26;1.05;;;1.05;;
62588;SDS011;58504;48.770;9.148;2023-04-21T04:05:53;1.15;;;1.15;;
62588;SDS011;58504;48.770;9.148;2023-04-21T04:08:21;1.20;;;1.20;;
62588;SDS011;58504;48.770;9.148;2023-04-21T04:10:47;0.80;;;0.80;;
62588;SDS011;58504;48.770;9.148;2023-04-21T04:13:15;1.30;;;1.20;;
62588;SDS011;58504;48.770;9.148;2023-04-21T04:15:42;0.95;;;0.95;;
62588;SDS011;58504;48.770;9.148;2023-04-21T04:18:09;1.35;;;1.25;;
62588;SDS011;58504;48.770;9.148;2023-04-21T04:20:36;1.00;;;1.00;;
62588;SDS011;58504;48.770;9.148;2023-04-21T04:23:02;0.93;;;0.93;;
62588;SDS011;58504;48.770;9.148;2023-04-21T04:25:29;1.52;;;1.42;;
62588;SDS011;58504;48.770;9.148;2023-04-21T04:27:57;1.42;;;1.33;;
62588;SDS011;58504;48.770;9.148;2023-04-21T04:30:26;1.30;;;1.20;;
62588;SDS011;58504;48.770;9.148;2023-04-21T04:32:53;1.20;;;1.20;;
62588;SDS011;58504;48.770;9.148;2023-04-21T04:35:21;1.15;;;1.15;;
62588;SDS011;58504;48.770;9.148;2023-04-21T04:37:48;1.10;;;1.00;;
62588;SDS011;58504;48.770;9.148;2023-04-21T04:40:16;1.13;;;1.13;;
62588;SDS011;58504;48.770;9.148;2023-04-21T04:42:43;1.20;;;1.20;;
62588;SDS011;58504;48.770;9.148;2023-04-21T04:45:11;1.20;;;1.20;;
62588;SDS011;58504;48.770;9.148;2023-04-21T04:47:39;1.02;;;1.02;;
62588;SDS011;58504;48.770;9.148;2023-04-21T04:50:06;0.95;;;0.95;;
62588;SDS011;58504;48.770;9.148;2023-04-21T04:52:33;1.60;;;1.52;;
62588;SDS011;58504;48.770;9.148;2023-04-21T04:54:59;0.98;;;0.98;;
62588;SDS011;58504;48.770;9.148;2023-04-21T04:57:26;1.10;;;1.10;;
62588;SDS011;58504;48.770;9.148;2023-04-21T04:59:53;1.23;;;1.23;;
62588;SDS011;58504;48.770;9.148;2023-04-21T05:02:20;1.20;;;1.20;;
62588;SDS011;58504;48.770;9.148;2023-04-21T05:04:49;1.17;;;1.17;;
62588;SDS011;58504;48.770;9.148;2023-04-21T05:07:16;1.10;;;1.10;;
62588;SDS011;58504;48.770;9.148;2023-04-21T05:09:43;1.25;;;1.25;;
62588;SDS011;58504;48.770;9.148;2023-04-21T05:12:09;1.27;;;1.23;;
62588;SDS011;58504;48.770;9.148;2023-04-21T05:14:36;1.17;;;1.17;;
62588;SDS011;58504;48.770;9.148;2023-04-21T05:17:03;1.40;;;1.30;;
62588;SDS011;58504;48.770;9.148;2023-04-21T05:19:30;1.00;;;1.00;;
62588;SDS011;58504;48.770;9.148;2023-04-21T05:21:58;0.90;;;0.90;;
62588;SDS011;58504;48.770;9.148;2023-04-21T05:24:26;1.00;;;1.00;;
62588;SDS011;58504;48.770;9.148;2023-04-21T05:26:52;1.38;;;1.30;;
62588;SDS011;58504;48.770;9.148;2023-04-21T05:29:19;1.05;;;1.05;;
62588;SDS011;58504;48.770;9.148;2023-04-21T05:31:46;1.00;;;1.00;;
62588;SDS011;58504;48.770;9.148;2023-04-21T05:34:13;1.30;;;1.20;;
62588;SDS011;58504;48.770;9.148;2023-04-21T05:36:40;0.93;;;0.93;;
62588;SDS011;58504;48.770;9.148;2023-04-21T05:39:08;1.13;;;1.13;;
62588;SDS011;58504;48.770;9.148;2023-04-21T05:41:35;1.15;;;1.15;;
62588;SDS011;58504;48.770;9.148;2023-04-21T05:44:02;1.15;;;1.15;;
62588;SDS011;58504;48.770;9.148;2023-04-21T05:46:28;1.30;;;1.10;;
62588;SDS011;58504;48.770;9.148;2023-04-21T05:48:55;1.08;;;1.08;;
62588;SDS011;58504;48.770;9.148;2023-04-21T05:51:22;1.00;;;1.00;;
62588;SDS011;58504;48.770;9.148;2023-04-21T05:53:49;1.35;;;1.25;;
62588;SDS011;58504;48.770;9.148;2023-04-21T05:56:17;1.42;;;1.33;;
62588;SDS011;58504;48.770;9.148;2023-04-21T05:58:43;1.33;;;1.27;;
62588;SDS011;58504;48.770;9.148;2023-04-21T06:01:10;1.02;;;1.02;;
62588;SDS011;58504;48.770;9.148;2023-04-21T06:03:39;1.38;;;1.38;;
62588;SDS011;58504;48.770;9.148;2023-04-21T06:06:06;1.35;;;1.33;;
62588;SDS011;58504;48.770;9.148;2023-04-21T06:08:35;1.00;;;1.00;;
62588;SDS011;58504;48.770;9.148;2023-04-21T06:11:02;1.17;;;1.10;;
62588;SDS011;58504;48.770;9.148;2023-04-21T06:13:30;1.95;;;1.85;;
62588;SDS011;58504;48.770;9.148;2023-04-21T06:15:57;2.75;;;2.55;;
62588;SDS011;58504;48.770;9.148;2023-04-21T06:18:25;2.22;;;2.03;;
62588;SDS011;58504;48.770;9.148;2023-04-21T06:20:52;2.00;;;1.90;;
62588;SDS011;58504;48.770;9.148;2023-04-21T06:23:20;2.08;;;1.92;;
62588;SDS011;58504;48.770;9.148;2023-04-21T06:25:47;1.88;;;1.77;;
62588;SDS011;58504;48.770;9.148;2023-04-21T06:28:24;2.28;;;1.40;;
62588;SDS011;58504;48.770;9.148;2023-04-21T06:30:52;1.63;;;1.52;;
62588;SDS011;58504;48.770;9.148;2023-04-21T06:33:19;1.15;;;1.15;;
62588;SDS011;58504;48.770;9.148;2023-04-21T06:35:46;1.58;;;1.48;;
62588;SDS011;58504;48.770;9.148;2023-04-21T06:38:13;1.25;;;1.13;;
62588;SDS011;58504;48.770;9.148;2023-04-21T06:40:40;2.40;;;1.85;;
62588;SDS011;58504;48.770;9.148;2023-04-21T06:43:06;1.90;;;1.58;;
62588;SDS011;58504;48.770;9.148;2023-04-21T06:45:33;1.23;;;1.13;;
62588;SDS011;58504;48.770;9.148;2023-04-21T06:48:01;1.60;;;1.50;;
62588;SDS011;58504;48.770;9.148;2023-04-21T06:50:28;1.67;;;1.58;;
62588;SDS011;58504;48.770;9.148;2023-04-21T06:52:55;2.38;;;1.60;;
62588;SDS011;58504;48.770;9.148;2023-04-21T06:55:22;1.95;;;1.40;;
62588;SDS011;58504;48.770;9.148;2023-04-21T06:57:49;3.85;;;1.45;;
62588;SDS011;58504;48.770;9.148;2023-04-21T07:00:15;1.55;;;1.30;;
62588;SDS011;58504;48.770;9.148;2023-04-21T07:02:42;1.23;;;1.20;;
62588;SDS011;58504;48.770;9.148;2023-04-21T07:05:10;2.53;;;1.55;;
62588;SDS011;58504;48.770;9.148;2023-04-21T07:07:37;2.70;;;1.23;;
62588;SDS011;58504;48.770;9.148;2023-04-21T07:10:04;2.17;;;1.40;;
62588;SDS011;58504;48.770;9.148;2023-04-21T07:12:32;2.08;;;1.45;;
62588;SDS011;58504;48.770;9.148;2023-04-21T07:14:58;7.05;;;1.85;;
62588;SDS011;58504;48.770;9.148;2023-04-21T07:17:25;1.48;;;1.38;;
62588;SDS011;58504;48.770;9.148;2023-04-21T07:19:52;1.63;;;1.52;;
62588;SDS011;58504;48.770;9.148;2023-04-21T07:22:20;1.95;;;1.67;;
62588;SDS011;58504;48.770;9.148;2023-04-21T07:24:47;1.75;;;1.65;;
62588;SDS011;58504;48.770;9.148;2023-04-21T07:27:13;3.25;;;1.50;;
62588;SDS011;58504;48.770;9.148;2023-04-21T07:29:43;3.45;;;1.50;;
62588;SDS011;58504;48.770;9.148;2023-04-21T07:32:09;2.08;;;1.40;;
62588;SDS011;58504;48.770;9.148;2023-04-21T07:34:36;3.80;;;1.50;;
62588;SDS011;58504;48.770;9.148;2023-04-21T07:37:03;2.53;;;1.67;;
62588;SDS011;58504;48.770;9.148;2023-04-21T07:39:31;3.83;;;1.70;;
62588;SDS011;58504;48.770;9.148;2023-04-21T07:41:58;1.90;;;1.20;;
62588;SDS011;58504;48.770;9.148;2023-04-21T07:44:24;4.72;;;1.30;;
62588;SDS011;58504;48.770;9.148;2023-04-21T07:46:53;1.27;;;1.15;;
62588;SDS011;58504;48.770;9.148;2023-04-21T07:49:20;1.80;;;1.70;;
62588;SDS011;58504;48.770;9.148;2023-04-21T07:51:46;2.00;;;1.90;;
62588;SDS011;58504;48.770;9.148;2023-04-21T07:54:13;1.40;;;1.30;;
62588;SDS011;58504;48.770;9.148;2023-04-21T07:56:41;2.20;;;1.00;;
62588;SDS011;58504;48.770;9.148;2023-04-21T07:59:08;1.50;;;1.38;;
62588;SDS011;58504;48.770;9.148;2023-04-21T08:01:35;1.50;;;1.50;;
62588;SDS011;58504;48.770;9.148;2023-04-21T08:04:02;1.63;;;1.50;;
62588;SDS011;58504;48.770;9.148;2023-04-21T08:06:29;2.60;;;1.23;;
62588;SDS011;58504;48.770;9.148;2023-04-21T08:08:56;2.17;;;1.00;;
62588;SDS011;58504;48.770;9.148;2023-04-21T08:11:23;1.10;;;1.10;;
62588;SDS011;58504;48.770;9.148;2023-04-21T08:13:53;1.85;;;1.75;;
62588;SDS011;58504;48.770;9.148;2023-04-21T08:16:21;1.30;;;1.20;;
62588;SDS011;58504;48.770;9.148;2023-04-21T08:18:48;2.03;;;1.92;;
62588;SDS011;58504;48.770;9.148;2023-04-21T08:21:15;1.15;;;1.15;;
62588;SDS011;58504;48.770;9.148;2023-04-21T08:23:41;1.45;;;1.35;;
62588;SDS011;58504;48.770;9.148;2023-04-21T08:26:08;4.15;;;1.38;;
62588;SDS011;58504;48.770;9.148;2023-04-21T08:28:35;1.10;;;1.10;;
62588;SDS011;58504;48.770;9.148;2023-04-21T08:31:04;1.67;;;0.88;;
62588;SDS011;58504;48.770;9.148;2023-04-21T08:33:30;0.90;;;0.90;;
62588;SDS011;58504;48.770;9.148;2023-04-21T08:35:57;0.82;;;0.82;;
62588;SDS011;58504;48.770;9.148;2023-04-21T08:38:24;1.08;;;0.98;;
62588;SDS011;58504;48.770;9.148;2023-04-21T08:40:51;0.98;;;0.98;;
62588;SDS011;58504;48.770;9.148;2023-04-21T08:43:19;3.83;;;1.40;;
62588;SDS011;58504;48.770;9.148;2023-04-21T08:45:46;1.60;;;1.10;;
62588;SDS011;58504;48.770;9.148;2023-04-21T08:48:14;0.95;;;0.95;;
62588;SDS011;58504;48.770;9.148;2023-04-21T08:53:13;1.50;;;1.08;;
62588;SDS011;58504;48.770;9.148;2023-04-21T08:55:41;1.20;;;1.20;;
62588;SDS011;58504;48.770;9.148;2023-04-21T08:58:08;1.10;;;1.00;;
62588;SDS011;58504;48.770;9.148;2023-04-21T09:00:36;1.08;;;1.00;;
62588;SDS011;58504;48.770;9.148;2023-04-21T09:03:03;2.42;;;1.20;;
62588;SDS011;58504;48.770;9.148;2023-04-21T09:05:33;1.30;;;1.20;;
62588;SDS011;58504;48.770;9.148;2023-04-21T09:08:07;1.65;;;0.95;;
62588;SDS011;58504;48.770;9.148;2023-04-21T09:10:41;1.73;;;1.00;;
62588;SDS011;58504;48.770;9.148;2023-04-21T09:13:08;1.20;;;1.20;;
62588;SDS011;58504;48.770;9.148;2023-04-21T09:15:38;0.90;;;0.90;;
62588;SDS011;58504;48.770;9.148;2023-04-21T09:18:09;0.90;;;0.90;;
62588;SDS011;58504;48.770;9.148;2023-04-21T09:20:38;1.00;;;1.00;;
62588;SDS011;58504;48.770;9.148;2023-04-21T09:23:06;1.00;;;1.00;;
62588;SDS011;58504;48.770;9.148;2023-04-21T09:25:33;1.00;;;1.00;;
62588;SDS011;58504;48.770;9.148;2023-04-21T09:28:00;0.85;;;0.85;;
62588;SDS011;58504;48.770;9.148;2023-04-21T09:30:27;1.85;;;1.27;;
62588;SDS011;58504;48.770;9.148;2023-04-21T09:32:54;1.05;;;1.05;;
62588;SDS011;58504;48.770;9.148;2023-04-21T09:35:23;1.13;;;1.05;;
62588;SDS011;58504;48.770;9.148;2023-04-21T09:37:54;0.90;;;0.90;;
62588;SDS011;58504;48.770;9.148;2023-04-21T09:40:21;1.08;;;1.08;;
62588;SDS011;58504;48.770;9.148;2023-04-21T09:42:48;1.33;;;1.20;;
62588;SDS011;58504;48.770;9.148;2023-04-21T09:45:16;1.27;;;1.17;;
62588;SDS011;58504;48.770;9.148;2023-04-21T09:47:43;2.13;;;0.90;;
62588;SDS011;58504;48.770;9.148;2023-04-21T09:50:15;1.02;;;1.02;;
62588;SDS011;58504;48.770;9.148;2023-04-21T09:52:44;0.95;;;0.95;;
62588;SDS011;58504;48.770;9.148;2023-04-21T09:55:15;1.15;;;1.15;;
62588;SDS011;58504;48.770;9.148;2023-04-21T09:57:45;1.10;;;1.10;;
62588;SDS011;58504;48.770;9.148;2023-04-21T10:00:13;1.63;;;1.33;;
62588;SDS011;58504;48.770;9.148;2023-04-21T10:02:43;1.42;;;1.38;;
62588;SDS011;58504;48.770;9.148;2023-04-21T10:05:12;1.27;;;1.17;;
62588;SDS011;58504;48.770;9.148;2023-04-21T10:07:39;0.80;;;0.80;;
62588;SDS011;58504;48.770;9.148;2023-04-21T10:10:06;1.40;;;1.02;;
62588;SDS011;58504;48.770;9.148;2023-04-21T10:12:36;0.90;;;0.90;;
62588;SDS011;58504;48.770;9.148;2023-04-21T10:15:03;1.45;;;1.35;;
62588;SDS011;58504;48.770;9.148;2023-04-21T10:17:33;2.38;;;1.10;;
62588;SDS011;58504;48.770;9.148;2023-04-21T10:20:00;1.10;;;1.10;;
62588;SDS011;58504;48.770;9.148;2023-04-21T10:22:33;1.63;;;1.20;;
62588;SDS011;58504;48.770;9.148;2023-04-21T10:25:04;0.98;;;0.98;;
62588;SDS011;58504;48.770;9.148;2023-04-21T10:27:36;1.40;;;1.30;;
62588;SDS011;58504;48.770;9.148;2023-04-21T10:32:48;2.53;;;1.10;;
62588;SDS011;58504;48.770;9.148;2023-04-21T10:35:36;1.10;;;1.10;;
62588;SDS011;58504;48.770;9.148;2023-04-21T10:38:35;0.98;;;0.98;;
62588;SDS011;58504;48.770;9.148;2023-04-21T10:41:07;1.30;;;1.20;;
62588;SDS011;58504;48.770;9.148;2023-04-21T10:43:52;2.03;;;1.00;;
62588;SDS011;58504;48.770;9.148;2023-04-21T10:46:31;4.25;;;1.85;;
62588;SDS011;58504;48.770;9.148;2023-04-21T10:49:08;2.15;;;1.67;;
62588;SDS011;58504;48.770;9.148;2023-04-21T10:54:31;5.55;;;2.15;;
62588;SDS011;58504;48.770;9.148;2023-04-21T10:57:06;3.00;;;1.55;;
62588;SDS011;58504;48.770;9.148;2023-04-21T10:59:35;6.18;;;1.63;;
62588;SDS011;58504;48.770;9.148;2023-04-21T11:02:02;2.65;;;1.70;;
62588;SDS011;58504;48.770;9.148;2023-04-21T11:04:30;4.30;;;1.98;;
62588;SDS011;58504;48.770;9.148;2023-04-21T11:07:04;5.15;;;2.28;;
62588;SDS011;58504;48.770;9.148;2023-04-21T11:09:32;6.57;;;1.77;;
62588;SDS011;58504;48.770;9.148;2023-04-21T11:11:59;3.95;;;1.52;;
62588;SDS011;58504;48.770;9.148;2023-04-21T11:14:27;4.40;;;1.95;;
62588;SDS011;58504;48.770;9.148;2023-04-21T11:16:55;3.45;;;1.55;;
62588;SDS011;58504;48.770;9.148;2023-04-21T11:19:22;6.28;;;2.20;;
62588;SDS011;58504;48.770;9.148;2023-04-21T11:21:50;5.38;;;2.13;;
62588;SDS011;58504;48.770;9.148;2023-04-21T11:24:18;6.00;;;2.33;;
62588;SDS011;58504;48.770;9.148;2023-04-21T11:26:46;12.65;;;2.47;;
62588;SDS011;58504;48.770;9.148;2023-04-21T11:29:13;5.97;;;2.40;;
62588;SDS011;58504;48.770;9.148;2023-04-21T11:31:42;2.58;;;1.73;;
62588;SDS011;58504;48.770;9.148;2023-04-21T11:34:11;8.45;;;1.88;;
62588;SDS011;58504;48.770;9.148;2023-04-21T11:36:41;8.82;;;2.53;;
62588;SDS011;58504;48.770;9.148;2023-04-21T11:39:10;3.40;;;1.80;;
62588;SDS011;58504;48.770;9.148;2023-04-21T11:41:38;8.00;;;1.80;;
62588;SDS011;58504;48.770;9.148;2023-04-21T11:44:05;3.40;;;1.50;;
62588;SDS011;58504;48.770;9.148;2023-04-21T11:46:32;4.50;;;1.80;;
62588;SDS011;58504;48.770;9.148;2023-04-21T11:49:01;5.22;;;1.85;;
62588;SDS011;58504;48.770;9.148;2023-04-21T11:51:34;2.70;;;2.13;;
62588;SDS011;58504;48.770;9.148;2023-04-21T11:54:03;3.88;;;1.65;;
62588;SDS011;58504;48.770;9.148;2023-04-21T11:56:33;2.33;;;1.20;;
62588;SDS011;58504;48.770;9.148;2023-04-21T11:59:04;3.95;;;1.95;;
62588;SDS011;58504;48.770;9.148;2023-04-21T12:01:32;2.25;;;1.50;;
62588;SDS011;58504;48.770;9.148;2023-04-21T12:03:59;1.17;;;1.08;;
62588;SDS011;58504;48.770;9.148;2023-04-21T12:06:28;1.85;;;1.38;;
62588;SDS011;58504;48.770;9.148;2023-04-21T12:08:58;3.15;;;1.63;;
62588;SDS011;58504;48.770;9.148;2023-04-21T12:11:26;2.15;;;1.40;;
62588;SDS011;58504;48.770;9.148;2023-04-21T12:13:55;1.73;;;1.63;;
62588;SDS011;58504;48.770;9.148;2023-04-21T12:16:22;2.60;;;1.70;;
62588;SDS011;58504;48.770;9.148;2023-04-21T12:18:51;4.57;;;1.88;;
62588;SDS011;58504;48.770;9.148;2023-04-21T12:21:18;3.08;;;2.45;;
62588;SDS011;58504;48.770;9.148;2023-04-21T12:23:44;1.52;;;1.42;;
62588;SDS011;58504;48.770;9.148;2023-04-21T12:26:13;4.47;;;3.03;;
62588;SDS011;58504;48.770;9.148;2023-04-21T12:28:39;3.10;;;2.22;;
62588;SDS011;58504;48.770;9.148;2023-04-21T12:31:06;3.10;;;2.35;;
62588;SDS011;58504;48.770;9.148;2023-04-21T12:33:33;2.50;;;2.00;;
62588;SDS011;58504;48.770;9.148;2023-04-21T12:36:00;3.50;;;1.60;;
62588;SDS011;58504;48.770;9.148;2023-04-21T12:38:27;2.15;;;1.40;;
62588;SDS011;58504;48.770;9.148;2023-04-21T12:40:54;2.30;;;1.60;;
62588;SDS011;58504;48.770;9.148;2023-04-21T12:43:22;2.22;;;1.67;;
62588;SDS011;58504;48.770;9.148;2023-04-21T12:45:49;3.65;;;1.33;;
62588;SDS011;58504;48.770;9.148;2023-04-21T12:48:16;1.23;;;1.20;;
62588;SDS011;58504;48.770;9.148;2023-04-21T12:50:43;1.70;;;1.58;;
62588;SDS011;58504;48.770;9.148;2023-04-21T12:53:10;2.03;;;1.23;;
62588;SDS011;58504;48.770;9.148;2023-04-21T12:55:37;3.10;;;2.03;;
62588;SDS011;58504;48.770;9.148;2023-04-21T12:58:04;1.20;;;1.10;;
62588;SDS011;58504;48.770;9.148;2023-04-21T13:00:32;2.20;;;1.60;;
62588;SDS011;58504;48.770;9.148;2023-04-21T13:02:59;2.92;;;1.55;;
62588;SDS011;58504;48.770;9.148;2023-04-21T13:05:26;1.48;;;1.33;;
62588;SDS011;58504;48.770;9.148;2023-04-21T13:07:53;1.98;;;1.40;;
62588;SDS011;58504;48.770;9.148;2023-04-21T13:10:20;1.70;;;1.60;;
62588;SDS011;58504;48.770;9.148;2023-04-21T13:12:47;4.75;;;1.75;;
62588;SDS011;58504;48.770;9.148;2023-04-21T13:15:13;6.82;;;1.33;;
62588;SDS011;58504;48.770;9.148;2023-04-21T13:17:42;0.93;;;0.93;;
62588;SDS011;58504;48.770;9.148;2023-04-21T13:20:09;1.40;;;1.30;;
62588;SDS011;58504;48.770;9.148;2023-04-21T13:22:36;1.25;;;1.25;;
62588;SDS011;58504;48.770;9.148;2023-04-21T13:25:03;4.35;;;1.25;;
62588;SDS011;58504;48.770;9.148;2023-04-21T13:27:30;1.63;;;1.50;;
62588;SDS011;58504;48.770;9.148;2023-04-21T13:29:58;2.72;;;1.35;;
62588;SDS011;58504;48.770;9.148;2023-04-21T13:32:25;1.30;;;1.20;;
62588;SDS011;58504;48.770;9.148;2023-04-21T13:34:53;1.45;;;1.35;;
62588;SDS011;58504;48.770;9.148;2023-04-21T13:37:19;2.28;;;1.70;;
62588;SDS011;58504;48.770;9.148;2023-04-21T13:39:46;1.80;;;1.70;;
62588;SDS011;58504;48.770;9.148;2023-04-21T13:42:13;7.15;;;2.33;;
62588;SDS011;58504;48.770;9.148;2023-04-21T13:44:40;2.50;;;2.00;;
62588;SDS011;58504;48.770;9.148;2023-04-21T13:47:06;2.38;;;1.80;;
62588;SDS011;58504;48.770;9.148;2023-04-21T13:49:34;2.25;;;1.98;;
62588;SDS011;58504;48.770;9.148;2023-04-21T13:52:02;1.88;;;1.77;;
62588;SDS011;58504;48.770;9.148;2023-04-21T13:54:28;1.83;;;1.55;;
62588;SDS011;58504;48.770;9.148;2023-04-21T13:56:55;1.70;;;1.60;;
62588;SDS011;58504;48.770;9.148;2023-04-21T13:59:22;3.35;;;1.52;;
62588;SDS011;58504;48.770;9.148;2023-04-21T14:01:49;2.63;;;1.45;;
62588;SDS011;58504;48.770;9.148;2023-04-21T14:04:15;1.70;;;1.60;;
62588;SDS011;58504;48.770;9.148;2023-04-21T14:06:44;1.67;;;1.58;;
62588;SDS011;58504;48.770;9.148;2023-04-21T14:09:12;2.35;;;1.40;;
62588;SDS011;58504;48.770;9.148;2023-04-21T14:11:39;2.97;;;1.73;;
62588;SDS011;58504;48.770;9.148;2023-04-21T14:14:06;1.33;;;1.33;;
62588;SDS011;58504;48.770;9.148;2023-04-21T14:16:35;1.98;;;1.70;;
62588;SDS011;58504;48.770;9.148;2023-04-21T14:19:02;3.67;;;1.60;;
62588;SDS011;58504;48.770;9.148;2023-04-21T14:21:29;2.10;;;1.73;;
62588;SDS011;58504;48.770;9.148;2023-04-21T14:23:56;4.65;;;1.77;;
62588;SDS011;58504;48.770;9.148;2023-04-21T14:26:24;1.65;;;1.55;;
62588;SDS011;58504;48.770;9.148;2023-04-21T14:28:51;3.17;;;1.70;;
62588;SDS011;58504;48.770;9.148;2023-04-21T14:31:18;1.30;;;1.27;;
62588;SDS011;58504;48.770;9.148;2023-04-21T14:33:45;2.60;;;1.83;;
62588;SDS011;58504;48.770;9.148;2023-04-21T14:36:11;2.78;;;1.67;;
62588;SDS011;58504;48.770;9.148;2023-04-21T14:38:38;1.70;;;1.60;;
62588;SDS011;58504;48.770;9.148;2023-04-21T14:41:06;1.75;;;1.35;;
62588;SDS011;58504;48.770;9.148;2023-04-21T14:43:34;1.90;;;1.67;;
62588;SDS011;58504;48.770;9.148;2023-04-21T14:46:01;1.48;;;1.38;;
62588;SDS011;58504;48.770;9.148;2023-04-21T14:48:29;1.50;;;1.40;;
62588;SDS011;58504;48.770;9.148;2023-04-21T14:50:56;5.20;;;1.95;;
62588;SDS011;58504;48.770;9.148;2023-04-21T14:53:22;2.88;;;1.55;;
62588;SDS011;58504;48.770;9.148;2023-04-21T14:55:49;3.08;;;1.55;;
62588;SDS011;58504;48.770;9.148;2023-04-21T14:58:16;2.42;;;1.40;;
62588;SDS011;58504;48.770;9.148;2023-04-21T15:00:44;1.33;;;1.27;;